Time;durP1;ratioP1;P1;durP2;ratioP2;P2;SDS_P1;SDS_P2;PMS_P1;PMS_P2;Temp;Humidity;BMP_temperature;BMP_pressure;BME280_temperature;BME280_humidity;BME280_pressure;Samples;Min_cycle;Max_cycle;Signal;HPM_P1;HPM_P2
2022/09/05 00:02:02;;;;;;;1.25;0.50;;;25.40;58.40;;;;;;5073269;28;20386;-78
2022/09/05 00:04:55;;;;;;;0.90;0.60;;;25.30;58.20;;;;;;5073374;28;20051;-78
2022/09/05 00:07:35;;;;;;;;;;;25.40;58.40;;;;;;5073965;28;20070;-78
2022/09/05 00:10:30;;;;;;;1.10;0.52;;;25.40;58.40;;;;;;5073304;28;19912;-78
2022/09/05 00:12:58;;;;;;;1.58;0.60;;;25.40;58.50;;;;;;5073066;28;20016;-78
2022/09/05 00:15:54;;;;;;;1.13;0.43;;;25.40;58.40;;;;;;5073059;28;20488;-78
2022/09/05 00:18:41;;;;;;;1.30;0.90;;;25.30;58.50;;;;;;5073372;28;20036;-78
2022/09/05 00:21:35;;;;;;;2.05;0.75;;;25.30;58.60;;;;;;5073364;28;20031;-78
2022/09/05 00:24:16;;;;;;;3.00;0.60;;;25.30;58.60;;;;;;5073057;28;20028;-77
2022/09/05 00:27:07;;;;;;;1.50;0.85;;;25.30;59.30;;;;;;5072875;28;20127;-78
2022/09/05 00:29:57;;;;;;;1.10;0.43;;;25.20;58.80;;;;;;5072935;28;20043;-78
2022/09/05 00:32:49;;;;;;;1.00;0.60;;;25.20;58.90;;;;;;5072911;28;20024;-77
2022/09/05 00:35:30;;;;;;;0.80;0.52;;;25.20;58.90;;;;;;5072851;28;20518;-78
2022/09/05 00:38:08;;;;;;;0.98;0.55;;;25.20;58.90;;;;;;5073067;28;20033;-78
2022/09/05 00:40:48;;;;;;;0.90;0.60;;;25.20;59.00;;;;;;5072876;28;20039;-78
2022/09/05 00:43:26;;;;;;;0.90;0.50;;;25.20;59.00;;;;;;5072799;28;20024;-78
2022/09/05 00:45:57;;;;;;;1.35;0.60;;;25.20;59.10;;;;;;5073005;28;20024;-78
2022/09/05 00:48:48;;;;;;;3.03;0.90;;;25.20;59.90;;;;;;5072970;28;20025;-77
2022/09/05 00:51:26;;;;;;;2.08;0.98;;;25.10;59.40;;;;;;5072382;28;20510;-78
2022/09/05 00:54:01;;;;;;;1.35;0.70;;;25.20;59.70;;;;;;5073015;28;20025;-78
2022/09/05 00:56:44;;;;;;;1.65;0.80;;;25.10;59.70;;;;;;5072709;28;20017;-78
2022/09/05 00:59:47;;;;;;;1.25;0.60;;;25.10;59.80;;;;;;5072990;28;20025;-78
2022/09/05 01:02:22;;;;;;;1.73;0.85;;;25.00;59.70;;;;;;5072807;28;20021;-78
2022/09/05 01:04:59;;;;;;;1.25;0.50;;;25.00;59.90;;;;;;5072651;28;20056;-78
2022/09/05 01:08:01;;;;;;;2.40;0.85;;;24.90;60.00;;;;;;5072407;28;20577;-78
2022/09/05 01:10:52;;;;;;;3.75;0.90;;;24.90;60.20;;;;;;5073220;28;20429;-78
2022/09/05 01:13:58;;;;;;;1.48;0.88;;;24.90;60.30;;;;;;5076377;28;20033;-78
2022/09/05 01:16:41;;;;;;;1.38;0.90;;;24.90;60.30;;;;;;5070274;28;20543;-78
2022/09/05 01:19:26;;;;;;;0.90;0.60;;;24.90;60.30;;;;;;5075955;28;20523;-78
2022/09/05 01:21:57;;;;;;;1.13;0.60;;;24.90;60.30;;;;;;5076105;28;20028;-78
2022/09/05 01:24:43;;;;;;;1.60;0.80;;;24.90;60.20;;;;;;5075893;28;20049;-77
2022/09/05 01:27:27;;;;;;;1.85;0.60;;;24.90;60.20;;;;;;5076096;28;20040;-78
2022/09/05 01:29:57;;;;;;;1.30;0.80;;;24.90;60.10;;;;;;5076168;28;20044;-78
2022/09/05 01:33:01;;;;;;;1.08;0.60;;;24.90;60.20;;;;;;5076229;28;20047;-78
2022/09/05 01:35:26;;;;;;;3.33;1.05;;;24.90;60.30;;;;;;5075760;28;20025;-78
2022/09/05 01:37:52;;;;;;;2.25;1.00;;;24.90;60.80;;;;;;5075752;28;20028;-78
2022/09/05 01:40:43;;;;;;;1.40;0.70;;;24.90;61.00;;;;;;5075849;28;20024;-78
2022/09/05 01:43:17;;;;;;;1.30;0.95;;;24.80;60.80;;;;;;5075721;28;20425;-78
2022/09/05 01:46:01;;;;;;;3.90;1.70;;;24.80;61.10;;;;;;5075974;28;20029;-78
2022/09/05 01:48:45;;;;;;;2.65;0.90;;;24.80;61.60;;;;;;5075945;28;20060;-78
2022/09/05 01:51:29;;;;;;;2.28;0.90;;;24.70;61.60;;;;;;5075629;28;20043;-78
2022/09/05 01:54:14;;;;;;;3.00;1.80;;;24.70;61.50;;;;;;5075794;28;20025;-78
2022/09/05 01:56:58;;;;;;;1.02;0.77;;;24.60;62.30;;;;;;5075662;28;20430;-78
2022/09/05 01:59:35;;;;;;;1.67;0.80;;;24.60;61.80;;;;;;5075330;28;20074;-78
2022/09/05 02:02:24;;;;;;;0.80;0.57;;;24.60;61.70;;;;;;5075289;28;20028;-78
2022/09/05 02:05:05;;;;;;;1.15;0.60;;;24.60;61.70;;;;;;5074811;28;20038;-78
2022/09/05 02:08:07;;;;;;;1.63;0.90;;;24.60;61.50;;;;;;5075100;28;20036;-78
2022/09/05 02:10:41;;;;;;;0.95;0.77;;;24.60;61.40;;;;;;5075169;28;20063;-78
2022/09/05 02:13:13;;;;;;;1.30;0.90;;;24.60;61.60;;;;;;5075445;28;20021;-78
2022/09/05 02:15:52;;;;;;;1.40;0.88;;;24.60;61.60;;;;;;5075123;28;20035;-78
2022/09/05 02:18:23;;;;;;;1.20;0.80;;;24.60;61.60;;;;;;5075182;28;20032;-78
2022/09/05 02:21:03;;;;;;;1.48;0.82;;;24.60;61.60;;;;;;5074905;28;20021;-78
2022/09/05 02:23:47;;;;;;;1.10;0.68;;;24.60;61.60;;;;;;5074253;28;20051;-78
2022/09/05 02:26:24;;;;;;;1.67;1.02;;;24.60;61.60;;;;;;5074631;28;20048;-78
2022/09/05 02:29:24;;;;;;;2.30;1.00;;;24.60;61.60;;;;;;5074690;28;20033;-78
2022/09/05 02:31:55;;;;;;;1.00;0.60;;;24.60;61.70;;;;;;5039240;28;20471;-78
2022/09/05 02:34:43;;;;;;;0.85;0.70;;;24.60;61.80;;;;;;5074536;28;20024;-78
2022/09/05 02:37:24;;;;;;;2.15;1.00;;;24.60;61.80;;;;;;5074987;28;20042;-78
2022/09/05 02:39:51;;;;;;;1.15;0.85;;;24.50;61.70;;;;;;5074671;28;20444;-78
2022/09/05 02:42:34;;;;;;;0.98;0.60;;;24.50;61.80;;;;;;5074973;28;20031;-78
2022/09/05 02:45:32;;;;;;;2.40;1.10;;;24.60;61.70;;;;;;5074415;28;20017;-78
2022/09/05 02:48:25;;;;;;;0.95;0.68;;;24.60;61.60;;;;;;5074741;28;20427;-78
2022/09/05 02:51:30;;;;;;;2.22;1.27;;;24.60;61.70;;;;;;5074535;28;20111;-77
2022/09/05 02:54:03;;;;;;;1.73;1.17;;;24.60;61.90;;;;;;5012193;28;20422;-77
2022/09/05 02:56:51;;;;;;;1.42;0.98;;;24.60;62.00;;;;;;5066066;28;20048;-77
2022/09/05 02:59:52;;;;;;;1.80;0.75;;;24.50;61.90;;;;;;5074390;28;20048;-77
2022/09/05 03:02:33;;;;;;;1.00;0.80;;;24.60;62.00;;;;;;5074536;28;20060;-77
2022/09/05 03:05:33;;;;;;;2.85;1.15;;;24.50;61.90;;;;;;5074337;28;20234;-78
2022/09/05 03:08:02;;;;;;;2.15;1.13;;;24.50;61.90;;;;;;5071665;28;20110;-78
2022/09/05 03:10:34;;;;;;;2.15;1.30;;;24.60;62.10;;;;;;5074000;28;20044;-78
2022/09/05 03:13:11;;;;;;;;;;;24.50;62.30;;;;;;5074586;28;20021;-78
2022/09/05 03:15:43;;;;;;;3.63;1.63;;;24.50;62.30;;;;;;5074270;28;19958;-78
2022/09/05 03:18:26;;;;;;;1.60;1.30;;;24.50;62.30;;;;;;5073942;28;20054;-78
2022/09/05 03:21:12;;;;;;;2.38;2.15;;;24.50;62.30;;;;;;5073719;28;20078;-78
2022/09/05 03:23:59;;;;;;;2.15;1.48;;;24.40;62.90;;;;;;5074020;28;20025;-78
2022/09/05 03:26:51;;;;;;;2.85;1.60;;;24.40;62.90;;;;;;5073526;28;20477;-78
2022/09/05 03:29:26;;;;;;;1.08;0.98;;;24.30;63.20;;;;;;5073710;28;20035;-78
2022/09/05 03:32:10;;;;;;;1.60;1.05;;;24.30;62.90;;;;;;5073886;28;20054;-78
2022/09/05 03:35:12;;;;;;;1.20;1.00;;;24.30;63.00;;;;;;5073675;28;20020;-78
2022/09/05 03:37:50;;;;;;;3.28;1.20;;;24.20;62.80;;;;;;5073782;28;20048;-78
2022/09/05 03:40:21;;;;;;;3.03;1.52;;;24.30;62.90;;;;;;5073537;28;20082;-78
2022/09/05 03:43:13;;;;;;;3.95;1.60;;;24.30;62.80;;;;;;5073581;28;20399;-78
2022/09/05 03:46:10;;;;;;;2.85;1.50;;;24.30;62.70;;;;;;5072845;28;20048;-78
2022/09/05 03:48:50;;;;;;;2.17;1.20;;;24.30;62.80;;;;;;5058914;28;20055;-78
2022/09/05 03:51:30;;;;;;;1.85;1.17;;;24.30;62.80;;;;;;5073577;28;20028;-78
2022/09/05 03:53:58;;;;;;;3.22;1.70;;;24.30;62.80;;;;;;5073441;28;20483;-78
2022/09/05 03:56:45;;;;;;;1.33;1.00;;;24.30;62.80;;;;;;5073611;28;20012;-78
2022/09/05 03:59:14;;;;;;;1.45;0.90;;;24.30;62.80;;;;;;5073297;28;20349;-78
2022/09/05 04:01:49;;;;;;;1.42;1.00;;;24.30;62.80;;;;;;5073500;28;20028;-78
2022/09/05 04:04:32;;;;;;;1.55;1.30;;;24.30;62.70;;;;;;5073295;28;20020;-78
2022/09/05 04:07:02;;;;;;;1.02;0.80;;;24.30;62.80;;;;;;5073466;28;20025;-78
2022/09/05 04:09:39;;;;;;;1.70;1.20;;;24.30;62.70;;;;;;5073097;28;20036;-78
2022/09/05 04:12:16;;;;;;;1.90;1.10;;;24.30;62.70;;;;;;5073115;28;20043;-78
2022/09/05 04:15:10;;;;;;;1.63;1.17;;;24.30;62.70;;;;;;5073368;28;20043;-78
2022/09/05 04:17:39;;;;;;;1.80;0.82;;;24.30;62.80;;;;;;5072939;28;20051;-78
2022/09/05 04:20:13;;;;;;;1.83;0.90;;;24.30;62.80;;;;;;5072833;28;20112;-78
2022/09/05 04:23:03;;;;;;;2.92;1.83;;;24.30;62.80;;;;;;5073287;28;20036;-78
2022/09/05 04:25:53;;;;;;;2.28;1.52;;;24.30;63.10;;;;;;5072895;28;20510;-78
2022/09/05 04:28:34;;;;;;;3.47;1.50;;;24.20;63.00;;;;;;5073195;28;20031;-78
2022/09/05 04:31:04;;;;;;;3.08;1.13;;;24.20;63.00;;;;;;5073009;28;20040;-78
2022/09/05 04:34:01;;;;;;;1.30;1.05;;;24.20;63.00;;;;;;5073211;28;20021;-78
2022/09/05 04:36:36;;;;;;;1.73;1.25;;;24.30;63.70;;;;;;5073189;28;20073;-78
2022/09/05 04:39:26;;;;;;;2.47;1.40;;;24.30;63.00;;;;;;5072411;28;20484;-78
2022/09/05 04:42:03;;;;;;;1.98;1.20;;;24.20;63.00;;;;;;5065109;28;20036;-78
2022/09/05 04:44:48;;;;;;;1.80;1.50;;;24.30;63.30;;;;;;5072694;28;20444;-78
2022/09/05 04:47:22;;;;;;;2.00;1.23;;;24.20;63.10;;;;;;5076266;28;20024;-78
2022/09/05 04:50:07;;;;;;;1.90;1.20;;;24.20;63.20;;;;;;5076353;28;20075;-78
2022/09/05 04:52:42;;;;;;;1.88;1.48;;;24.20;63.10;;;;;;5076797;28;20016;-78
2022/09/05 04:55:24;;;;;;;4.45;2.42;;;24.20;63.20;;;;;;5076572;28;20475;-78
2022/09/05 04:58:09;;;;;;;1.43;1.23;;;24.10;63.50;;;;;;5076898;28;20040;-78
2022/09/05 05:00:56;;;;;;;2.47;2.25;;;24.10;63.60;;;;;;5076464;28;20025;-78
2022/09/05 05:03:28;;;;;;;3.60;2.53;;;24.10;64.00;;;;;;5076356;28;20621;-78
2022/09/05 05:05:57;;;;;;;5.32;3.95;;;24.10;64.30;;;;;;5076423;28;20059;-78
2022/09/05 05:08:58;;;;;;;2.40;1.77;;;24.00;64.80;;;;;;5076548;28;20028;-78
2022/09/05 05:11:54;;;;;;;2.00;1.50;;;23.90;64.50;;;;;;5076575;28;20036;-78
2022/09/05 05:14:45;;;;;;;3.20;1.75;;;23.90;64.30;;;;;;5076517;28;20071;-78
2022/09/05 05:17:35;;;;;;;2.72;1.50;;;23.90;64.20;;;;;;5076139;28;20035;-78
2022/09/05 05:20:09;;;;;;;1.67;1.27;;;23.90;64.40;;;;;;5076240;28;20017;-78
2022/09/05 05:22:44;;;;;;;2.65;1.75;;;23.90;64.40;;;;;;5076154;28;20020;-78
2022/09/05 05:25:11;;;;;;;3.05;1.95;;;23.90;64.30;;;;;;5075996;28;20052;-78
2022/09/05 05:27:48;;;;;;;5.03;1.92;;;23.90;64.30;;;;;;5075959;28;20023;-78
2022/09/05 05:30:26;;;;;;;3.63;1.55;;;23.90;64.20;;;;;;5075774;28;20036;-78
2022/09/05 05:32:54;;;;;;;3.53;2.47;;;23.90;64.20;;;;;;5076201;28;20029;-78
2022/09/05 05:35:39;;;;;;;2.63;1.92;;;23.90;64.30;;;;;;5076020;28;20106;-78
2022/09/05 05:38:26;;;;;;;2.95;2.40;;;23.90;64.10;;;;;;5075337;28;20411;-78
2022/09/05 05:41:06;;;;;;;3.72;2.10;;;24.00;64.60;;;;;;5075590;28;20151;-77
2022/09/05 05:43:41;;;;;;;3.15;1.85;;;24.00;64.40;;;;;;5075606;28;20054;-78
2022/09/05 05:46:11;;;;;;;2.15;1.70;;;24.00;64.60;;;;;;5075644;28;20055;-77
2022/09/05 05:48:39;;;;;;;4.65;3.33;;;23.90;64.70;;;;;;5075318;28;20036;-77
2022/09/05 05:51:25;;;;;;;4.07;3.17;;;23.90;65.40;;;;;;5075249;28;20032;-77
2022/09/05 05:54:05;;;;;;;3.78;2.67;;;23.90;65.30;;;;;;5075260;28;20206;-78
2022/09/05 05:56:39;;;;;;;5.60;3.97;;;23.90;65.30;;;;;;5074894;28;20032;-77
2022/09/05 05:59:29;;;;;;;4.38;3.88;;;23.80;66.10;;;;;;5075209;28;20028;-78
2022/09/05 06:01:57;;;;;;;6.50;5.57;;;23.80;66.00;;;;;;5074766;28;20380;-78
2022/09/05 06:05:01;;;;;;;4.65;3.70;;;23.80;66.50;;;;;;5075328;28;20028;-78
2022/09/05 06:07:53;;;;;;;9.18;5.82;;;23.70;66.70;;;;;;5069127;28;20033;-78
2022/09/05 06:10:40;;;;;;;4.93;4.07;;;23.70;67.40;;;;;;5075123;28;20036;-78
2022/09/05 06:13:27;;;;;;;6.80;3.63;;;23.60;67.30;;;;;;5074772;28;20476;-78
2022/09/05 06:16:32;;;;;;;10.10;7.32;;;23.60;67.40;;;;;;5075287;28;20051;-77
2022/09/05 06:19:22;;;;;;;7.43;5.18;;;23.50;68.70;;;;;;5072895;28;20472;-78
2022/09/05 06:22:09;;;;;;;8.82;7.90;;;23.30;68.70;;;;;;5074747;28;20032;-77
2022/09/05 06:24:56;;;;;;;7.38;5.28;;;23.20;69.70;;;;;;5074372;28;20035;-77
2022/09/05 06:27:59;;;;;;;11.15;7.72;;;23.10;70.30;;;;;;5074933;28;20020;-77
2022/09/05 06:30:30;;;;;;;;;;;23.00;70.90;;;;;;5073560;28;20178;-77
2022/09/05 06:33:37;;;;;;;5.30;4.55;;;22.90;71.30;;;;;;5074410;28;19933;-78
2022/09/05 06:36:26;;;;;;;10.52;7.20;;;22.90;70.90;;;;;;5032425;28;20046;-78
2022/09/05 06:39:01;;;;;;;12.90;8.93;;;22.90;71.70;;;;;;5032238;28;20527;-78
2022/09/05 06:41:30;;;;;;;6.82;4.85;;;22.80;72.30;;;;;;5062192;28;20076;-78
2022/09/05 06:44:21;;;;;;;12.80;8.70;;;22.90;71.80;;;;;;5074462;28;20086;-78
2022/09/05 06:46:52;;;;;;;9.32;7.05;;;22.90;72.10;;;;;;5074468;28;20036;-78
2022/09/05 06:49:57;;;;;;;8.25;7.07;;;22.90;72.30;;;;;;5073967;28;20052;-78
2022/09/05 06:52:58;;;;;;;9.27;7.78;;;22.90;72.20;;;;;;5073630;28;20028;-80
2022/09/05 06:55:23;;;;;;;6.32;5.22;;;23.00;72.30;;;;;;5037012;28;20029;-78
2022/09/05 06:57:51;;;;;;;11.73;8.85;;;23.00;71.70;;;;;;5074064;28;20026;-78
2022/09/05 07:00:24;;;;;;;11.57;7.68;;;23.10;72.00;;;;;;5074137;28;20029;-78
2022/09/05 07:02:50;;;;;;;4.70;3.90;;;23.20;72.10;;;;;;5074102;28;20029;-78
2022/09/05 07:05:34;;;;;;;11.43;8.07;;;23.20;71.60;;;;;;5062120;28;20036;-76
2022/09/05 07:08:35;;;;;;;11.23;9.23;;;23.30;71.70;;;;;;5053229;28;20028;-76
2022/09/05 07:11:22;;;;;;;12.20;8.48;;;23.30;71.60;;;;;;5041328;28;20041;-76
2022/09/05 07:14:15;;;;;;;9.32;7.07;;;23.20;72.70;;;;;;5060817;28;20040;-77
2022/09/05 07:17:04;;;;;;;5.35;4.50;;;23.20;72.70;;;;;;5045408;28;20032;-76
2022/09/05 07:19:43;;;;;;;6.80;4.78;;;23.30;71.90;;;;;;5052252;28;20025;-76
2022/09/05 07:22:35;;;;;;;11.38;8.80;;;23.40;71.50;;;;;;5044058;28;20036;-76
2022/09/05 07:25:07;;;;;;;9.67;5.50;;;23.60;71.20;;;;;;5046261;28;20040;-76
2022/09/05 07:27:55;;;;;;;4.10;3.25;;;23.70;70.50;;;;;;5052572;28;20029;-76
2022/09/05 07:30:21;;;;;;;8.93;7.03;;;23.90;69.20;;;;;;5053760;28;20064;-77
2022/09/05 07:32:51;;;;;;;7.18;5.78;;;24.10;69.50;;;;;;5051821;28;20372;-75
2022/09/05 07:35:31;;;;;;;6.75;5.22;;;24.20;69.20;;;;;;5053640;28;20274;-73
2022/09/05 07:38:20;;;;;;;8.05;5.13;;;24.30;69.30;;;;;;5053399;28;20481;-78
2022/09/05 07:40:58;;;;;;;9.85;5.75;;;24.50;68.90;;;;;;5053720;28;20109;-79
2022/09/05 07:43:40;;;;;;;5.53;4.53;;;24.50;69.10;;;;;;5053400;28;20021;-78
2022/09/05 07:46:20;;;;;;;5.65;3.72;;;24.50;68.70;;;;;;5052607;28;20025;-76
2022/09/05 07:48:54;;;;;;;11.10;5.68;;;24.60;68.30;;;;;;5052561;28;20484;-77
2022/09/05 07:51:26;;;;;;;6.88;5.10;;;24.80;68.10;;;;;;5053576;28;20052;-76
2022/09/05 07:53:56;;;;;;;10.30;6.15;;;24.80;68.20;;;;;;5053112;28;20025;-76
2022/09/05 07:56:42;;;;;;;13.18;6.60;;;24.90;68.00;;;;;;5053893;28;20400;-75
2022/09/05 07:59:12;;;;;;;10.05;7.07;;;24.90;67.90;;;;;;5055914;28;20033;-77
2022/09/05 08:01:44;;;;;;;13.13;8.60;;;24.90;67.70;;;;;;5052811;28;20376;-77
2022/09/05 08:04:25;;;;;;;9.18;7.20;;;24.80;68.10;;;;;;5052556;28;20029;-77
2022/09/05 08:06:52;;;;;;;10.98;6.93;;;24.80;68.20;;;;;;5052129;28;20029;-76
2022/09/05 08:09:29;;;;;;;8.15;6.35;;;25.00;67.90;;;;;;5053155;28;20043;-77
2022/09/05 08:12:00;;;;;;;10.93;6.10;;;25.00;68.20;;;;;;5053246;28;20033;-78
2022/09/05 08:14:41;;;;;;;7.57;5.00;;;25.00;67.40;;;;;;5052796;28;20490;-78
2022/09/05 08:17:12;;;;;;;9.93;5.63;;;25.10;67.00;;;;;;5053184;28;20381;-77
2022/09/05 08:19:48;;;;;;;8.63;4.75;;;25.10;67.00;;;;;;5052971;28;20112;-78
2022/09/05 08:22:20;;;;;;;7.47;5.60;;;25.30;67.10;;;;;;5056896;28;20039;-78
2022/09/05 08:25:04;;;;;;;8.82;5.05;;;25.40;65.80;;;;;;5057140;28;20487;-78
2022/09/05 08:28:00;;;;;;;10.23;5.95;;;25.50;65.50;;;;;;5056999;28;20052;-78
2022/09/05 08:30:27;;;;;;;11.98;6.38;;;25.60;65.80;;;;;;5057345;28;20040;-77
2022/09/05 08:33:10;;;;;;;10.25;6.07;;;25.70;65.90;;;;;;5056971;28;20021;-78
2022/09/05 08:35:47;;;;;;;9.00;5.93;;;25.80;66.10;;;;;;5057010;28;20043;-78
2022/09/05 08:38:15;;;;;;;10.35;6.50;;;26.00;64.70;;;;;;5057000;28;20418;-76
2022/09/05 08:40:50;;;;;;;9.02;5.65;;;26.00;64.90;;;;;;5056542;28;20021;-79
2022/09/05 08:43:56;;;;;;;9.77;5.30;;;26.10;65.20;;;;;;5055637;28;20036;-77
2022/09/05 08:46:32;;;;;;;7.35;5.13;;;26.20;64.50;;;;;;5066658;28;20036;-77
2022/09/05 08:49:03;;;;;;;6.80;4.78;;;26.40;64.20;;;;;;5063634;28;20031;-77
2022/09/05 08:52:06;;;;;;;7.20;4.63;;;26.60;63.60;;;;;;5064592;28;20036;-77
2022/09/05 08:54:41;;;;;;;;;;;26.60;63.70;;;;;;5008835;28;20277;-76
2022/09/05 08:57:42;;;;;;;9.10;4.78;;;26.80;63.10;;;;;;5057545;28;19908;-77
2022/09/05 09:00:09;;;;;;;6.28;3.58;;;27.00;63.20;;;;;;5055823;28;20522;-81
2022/09/05 09:03:10;;;;;;;10.02;3.50;;;27.20;62.60;;;;;;5062342;28;20384;-80
2022/09/05 09:05:54;;;;;;;7.50;2.05;;;27.30;61.10;;;;;;5070360;28;20058;-80
2022/09/05 09:08:26;;;;;;;5.35;1.67;;;27.40;60.70;;;;;;5066647;28;20375;-81
2022/09/05 09:11:11;;;;;;;3.85;1.73;;;27.50;60.30;;;;;;5052319;28;20090;-81
2022/09/05 09:14:01;;;;;;;6.78;1.80;;;27.70;59.20;;;;;;5061622;28;20519;-81
2022/09/05 09:17:05;;;;;;;3.30;1.38;;;27.90;58.90;;;;;;5056394;28;20031;-81
2022/09/05 09:19:44;;;;;;;3.47;1.40;;;27.90;58.30;;;;;;5060447;28;20029;-76
2022/09/05 09:22:19;;;;;;;4.22;1.20;;;28.10;57.10;;;;;;5057088;28;20025;-80
2022/09/05 09:25:02;;;;;;;6.28;1.33;;;28.20;56.90;;;;;;5072448;28;20036;-79
2022/09/05 09:27:41;;;;;;;5.15;1.08;;;28.30;56.80;;;;;;5063502;28;20039;-81
2022/09/05 09:30:07;;;;;;;4.00;1.20;;;28.40;56.70;;;;;;5055451;28;20434;-77
2022/09/05 09:32:51;;;;;;;4.50;1.60;;;28.50;56.30;;;;;;5065235;28;20037;-77
2022/09/05 09:35:41;;;;;;;6.30;1.35;;;28.60;55.70;;;;;;5070084;28;20031;-81
2022/09/05 09:38:07;;;;;;;2.33;1.05;;;28.70;55.60;;;;;;5058158;28;20024;-76
2022/09/05 09:40:56;;;;;;;5.45;1.23;;;28.80;55.30;;;;;;5059550;28;20108;-76
2022/09/05 09:43:28;;;;;;;2.33;0.80;;;28.90;55.60;;;;;;5068614;28;20078;-76
2022/09/05 09:45:59;;;;;;;5.43;0.90;;;29.00;55.10;;;;;;5067460;28;20043;-79
2022/09/05 09:48:25;;;;;;;4.90;0.80;;;29.20;54.40;;;;;;5066384;28;20016;-76
2022/09/05 09:51:01;;;;;;;3.58;0.68;;;29.30;54.50;;;;;;5062348;28;20447;-76
2022/09/05 09:53:39;;;;;;;4.60;0.90;;;29.50;53.30;;;;;;5057654;28;20377;-76
2022/09/05 09:56:26;;;;;;;4.50;0.70;;;29.60;53.10;;;;;;5049995;28;20024;-76
2022/09/05 09:59:03;;;;;;;6.45;0.80;;;29.70;52.80;;;;;;5062067;28;20048;-76
2022/09/05 10:02:19;;;;;;;1.45;0.50;;;29.90;51.80;;;;;;5055696;28;20127;-77
2022/09/05 10:05:02;;;;;;;3.80;0.60;;;29.90;51.00;;;;;;5059669;28;20036;-78
2022/09/05 10:07:48;;;;;;;4.60;0.98;;;29.90;50.40;;;;;;5072115;28;20043;-77
2022/09/05 10:10:32;;;;;;;1.42;0.50;;;30.10;50.10;;;;;;5071575;28;20123;-77
2022/09/05 10:13:22;;;;;;;1.55;0.60;;;30.10;49.70;;;;;;5056084;28;20369;-76
2022/09/05 10:15:50;;;;;;;1.63;0.50;;;30.20;48.70;;;;;;5057140;28;20036;-76
2022/09/05 10:18:39;;;;;;;2.47;0.50;;;30.40;48.80;;;;;;5055777;28;20013;-76
2022/09/05 10:21:24;;;;;;;1.95;0.43;;;30.40;47.60;;;;;;5040329;28;20485;-75
2022/09/05 10:24:17;;;;;;;3.97;0.60;;;30.50;47.60;;;;;;5057133;28;20064;-75
2022/09/05 10:27:08;;;;;;;2.92;0.60;;;30.50;47.80;;;;;;5061909;28;20123;-76
2022/09/05 10:29:45;;;;;;;1.93;0.53;;;30.60;47.60;;;;;;5054802;28;20037;-79
2022/09/05 10:32:52;;;;;;;2.47;0.40;;;30.80;47.40;;;;;;5061633;28;20025;-79
2022/09/05 10:35:22;;;;;;;1.73;0.70;;;30.90;46.00;;;;;;5057146;28;20036;-77
2022/09/05 10:37:59;;;;;;;2.45;0.40;;;30.90;46.20;;;;;;5071347;28;20025;-77
2022/09/05 10:40:27;;;;;;;1.90;0.38;;;31.00;45.50;;;;;;5062013;28;20036;-83
2022/09/05 10:43:00;;;;;;;2.22;0.43;;;31.20;45.90;;;;;;5051488;28;20028;-84
2022/09/05 10:45:37;;;;;;;1.05;0.40;;;31.20;46.50;;;;;;5052439;28;20029;-84
2022/09/05 10:48:11;;;;;;;2.53;0.52;;;31.20;46.00;;;;;;5057096;28;20025;-83
2022/09/05 10:50:55;;;;;;;1.67;0.50;;;31.30;44.90;;;;;;5051602;28;20123;-84
2022/09/05 10:53:25;;;;;;;1.15;0.40;;;31.40;43.60;;;;;;5043740;28;20032;-84
2022/09/05 10:56:05;;;;;;;1.52;0.30;;;31.50;42.80;;;;;;5064403;28;20033;-84
2022/09/05 10:58:58;;;;;;;1.50;0.50;;;31.40;42.10;;;;;;5055094;28;20114;-84
2022/09/05 11:01:32;;;;;;;2.05;0.40;;;31.40;41.80;;;;;;5055946;28;20039;-84
2022/09/05 11:04:35;;;;;;;1.02;0.32;;;31.50;41.80;;;;;;5070889;28;20029;-84
2022/09/05 11:07:23;;;;;;;5.38;0.40;;;31.70;41.20;;;;;;5054097;28;20035;-84
2022/09/05 11:09:55;;;;;;;1.67;0.52;;;31.80;41.10;;;;;;5055057;28;20415;-84
2022/09/05 11:12:44;;;;;;;1.17;0.50;;;31.80;42.60;;;;;;5057608;28;20022;-84
2022/09/05 11:15:37;;;;;;;1.20;0.30;;;31.90;41.90;;;;;;5070251;28;20039;-79
2022/09/05 11:18:09;;;;;;;1.13;0.40;;;31.90;42.10;;;;;;5066124;28;20021;-83
2022/09/05 11:20:46;;;;;;;;;;;31.80;42.20;;;;;;5056753;28;20025;-81
2022/09/05 11:23:23;;;;;;;1.35;0.40;;;31.80;42.30;;;;;;5058688;28;19909;-80
2022/09/05 11:26:30;;;;;;;1.45;0.40;;;31.80;43.20;;;;;;5050959;28;20048;-79
2022/09/05 11:29:09;;;;;;;3.00;0.40;;;31.90;42.10;;;;;;5054211;28;20033;-83
2022/09/05 11:31:55;;;;;;;1.17;0.30;;;32.00;42.60;;;;;;5054609;28;20459;-81
2022/09/05 11:34:50;;;;;;;1.42;0.40;;;32.00;42.60;;;;;;5060461;28;20387;-81
2022/09/05 11:37:40;;;;;;;2.90;0.50;;;32.10;43.00;;;;;;5067893;28;20499;-81
2022/09/05 11:40:11;;;;;;;2.08;0.45;;;32.20;42.30;;;;;;5065254;28;20111;-81
2022/09/05 11:42:55;;;;;;;2.20;0.40;;;32.40;41.70;;;;;;5070373;28;20027;-78
2022/09/05 11:45:56;;;;;;;1.40;0.30;;;32.40;41.50;;;;;;5070053;28;20392;-82
2022/09/05 11:48:40;;;;;;;2.45;0.40;;;32.40;41.70;;;;;;5062717;28;20543;-83
2022/09/05 11:51:27;;;;;;;1.98;0.40;;;32.40;41.80;;;;;;5053848;28;20071;-83
2022/09/05 11:54:21;;;;;;;2.55;0.30;;;32.50;42.00;;;;;;5061746;28;20017;-83
2022/09/05 11:56:55;;;;;;;3.55;0.55;;;32.60;41.70;;;;;;5059976;28;20036;-83
2022/09/05 11:59:52;;;;;;;0.90;0.30;;;32.70;41.20;;;;;;5062040;28;20036;-81
2022/09/05 12:02:31;;;;;;;1.85;0.40;;;32.80;41.10;;;;;;5056435;28;20020;-79
2022/09/05 12:05:21;;;;;;;0.75;0.30;;;32.80;40.10;;;;;;5054319;28;20033;-80
2022/09/05 12:08:03;;;;;;;2.10;0.30;;;32.90;40.00;;;;;;5067026;28;20025;-77
2022/09/05 12:10:37;;;;;;;0.75;0.30;;;32.90;38.80;;;;;;5069663;28;20554;-78
2022/09/05 12:13:20;;;;;;;3.67;0.38;;;32.80;38.60;;;;;;5069565;28;20028;-77
2022/09/05 12:15:46;;;;;;;3.22;0.40;;;32.80;39.40;;;;;;5063325;28;20108;-77
2022/09/05 12:18:33;;;;;;;1.95;0.40;;;32.80;39.30;;;;;;5054209;28;20112;-77
2022/09/05 12:21:11;;;;;;;2.40;0.50;;;32.80;39.50;;;;;;5069329;28;20108;-77
2022/09/05 12:23:52;;;;;;;1.65;0.38;;;32.80;40.40;;;;;;5071591;28;20035;-77
2022/09/05 12:26:34;;;;;;;0.82;0.35;;;32.90;40.80;;;;;;5070243;28;20041;-77
2022/09/05 12:29:17;;;;;;;5.57;0.30;;;32.90;40.20;;;;;;5071355;28;20032;-78
2022/09/05 12:31:49;;;;;;;0.90;0.40;;;33.00;40.00;;;;;;5054496;28;20041;-77
2022/09/05 12:34:49;;;;;;;2.53;0.40;;;33.20;40.00;;;;;;5070503;28;20096;-78
2022/09/05 12:37:38;;;;;;;3.97;0.40;;;33.20;40.40;;;;;;5071086;28;20032;-77
2022/09/05 12:40:16;;;;;;;1.65;0.30;;;33.20;39.10;;;;;;5032554;28;20048;-77
2022/09/05 12:42:44;;;;;;;2.97;0.50;;;33.30;38.90;;;;;;5042036;28;20387;-77
2022/09/05 12:45:19;;;;;;;1.13;0.35;;;33.40;39.50;;;;;;5053971;28;20048;-77
2022/09/05 12:48:00;;;;;;;1.35;0.30;;;33.50;38.70;;;;;;5051935;28;20040;-79
2022/09/05 12:50:59;;;;;;;2.53;0.50;;;33.70;40.10;;;;;;5065056;28;20039;-78
2022/09/05 12:53:38;;;;;;;1.00;0.50;;;33.70;38.60;;;;;;5050764;28;20170;-81
2022/09/05 12:56:14;;;;;;;3.85;0.52;;;33.50;39.30;;;;;;5068422;28;20369;-80
2022/09/05 12:58:44;;;;;;;1.33;0.40;;;33.40;38.30;;;;;;5053217;28;20099;-80
2022/09/05 13:01:15;;;;;;;3.60;0.90;;;33.40;39.00;;;;;;5071748;28;20040;-80
2022/09/05 13:04:02;;;;;;;1.65;0.30;;;33.30;38.50;;;;;;5063978;28;20032;-81
2022/09/05 13:06:45;;;;;;;1.45;0.30;;;33.20;38.70;;;;;;5052859;28;20029;-79
2022/09/05 13:09:32;;;;;;;1.23;0.30;;;33.40;39.30;;;;;;5070978;28;20033;-81
2022/09/05 13:12:07;;;;;;;2.42;0.30;;;33.50;38.60;;;;;;5065461;28;20124;-81
2022/09/05 13:14:59;;;;;;;5.85;0.40;;;33.60;38.20;;;;;;5053832;28;20029;-83
2022/09/05 13:17:37;;;;;;;0.98;0.35;;;33.70;38.40;;;;;;5055912;28;20025;-82
2022/09/05 13:20:10;;;;;;;2.42;0.38;;;33.80;38.00;;;;;;5055901;28;20033;-81
2022/09/05 13:22:38;;;;;;;1.27;0.20;;;33.70;37.80;;;;;;5058394;28;20021;-84
2022/09/05 13:25:15;;;;;;;0.93;0.20;;;33.60;37.90;;;;;;5055375;28;20044;-82
2022/09/05 13:27:55;;;;;;;2.25;0.40;;;33.60;37.50;;;;;;5064510;28;20036;-81
2022/09/05 13:30:25;;;;;;;0.80;0.40;;;33.60;37.80;;;;;;5064381;28;20546;-90
2022/09/05 13:32:58;;;;;;;2.22;0.57;;;33.50;38.40;;;;;;5056149;28;20033;-89
2022/09/05 13:35:31;;;;;;;2.58;0.30;;;33.30;39.10;;;;;;5059777;28;20021;-90
2022/09/05 13:38:23;;;;;;;3.13;0.40;;;33.40;39.00;;;;;;5075469;28;20032;-89
2022/09/05 13:40:56;;;;;;;0.98;0.32;;;33.50;38.10;;;;;;5075970;28;20044;-90
2022/09/05 13:43:37;;;;;;;2.10;0.32;;;33.60;38.20;;;;;;5075910;28;20107;-90
2022/09/05 13:46:31;;;;;;;1.13;0.40;;;33.70;37.40;;;;;;5076054;28;20395;-89
2022/09/05 13:49:18;;;;;;;3.35;0.20;;;33.70;37.20;;;;;;5075146;28;20039;-89
2022/09/05 13:51:53;;;;;;;0.80;0.30;;;33.90;37.90;;;;;;5075721;28;20028;-89
2022/09/05 13:55:00;;;;;;;1.63;0.30;;;34.10;38.00;;;;;;5075726;28;20067;-89
2022/09/05 13:57:55;;;;;;;1.85;0.30;;;34.20;37.10;;;;;;5055607;28;20025;-90
2022/09/05 14:00:34;;;;;;;2.72;0.30;;;34.20;37.20;;;;;;5075525;28;20029;-90
2022/09/05 14:03:24;;;;;;;1.83;0.40;;;34.20;36.70;;;;;;5075517;28;20028;-89
2022/09/05 14:06:24;;;;;;;2.88;0.40;;;33.80;37.50;;;;;;5076060;28;20058;-89